sensor_id;sensor_type;location;lat;lon;timestamp;pressure;altitude;pressure_sealevel;temperature;humidity
49973;BME280;65693;49.798;10.968;2023-02-14T00:02:16;100162.34;;;8.32;58.00
49973;BME280;65693;49.798;10.968;2023-02-14T00:04:43;100165.03;;;8.30;58.24
49973;BME280;65693;49.798;10.968;2023-02-14T00:07:11;100156.28;;;8.28;58.18
49973;BME280;65693;49.798;10.968;2023-02-14T00:09:38;100163.38;;;8.26;58.41
49973;BME280;65693;49.798;10.968;2023-02-14T00:12:04;100163.41;;;8.24;58.11
49973;BME280;65693;49.798;10.968;2023-02-14T00:14:31;100159.94;;;8.22;58.04
49973;BME280;65693;49.798;10.968;2023-02-14T00:17:17;100162.56;;;8.22;58.26
49973;BME280;65693;49.798;10.968;2023-02-14T00:19:43;100156.47;;;8.20;58.14
49973;BME280;65693;49.798;10.968;2023-02-14T00:22:09;100152.03;;;8.21;58.43
49973;BME280;65693;49.798;10.968;2023-02-14T00:24:36;100156.47;;;8.20;58.13
49973;BME280;65693;49.798;10.968;2023-02-14T00:27:02;100151.19;;;8.19;58.35
49973;BME280;65693;49.798;10.968;2023-02-14T00:29:31;100146.84;;;8.16;58.15
49973;BME280;65693;49.798;10.968;2023-02-14T00:31:58;100150.34;;;8.18;58.34
49973;BME280;65693;49.798;10.968;2023-02-14T00:34:25;100146.81;;;8.18;58.48
49973;BME280;65693;49.798;10.968;2023-02-14T00:36:53;100154.75;;;8.16;58.55
49973;BME280;65693;49.798;10.968;2023-02-14T00:39:19;100160.03;;;8.18;58.43
49973;BME280;65693;49.798;10.968;2023-02-14T00:41:46;100158.38;;;8.14;58.46
49973;BME280;65693;49.798;10.968;2023-02-14T00:44:13;100158.38;;;8.12;58.66
49973;BME280;65693;49.798;10.968;2023-02-14T00:46:40;100154.84;;;8.13;58.56
49973;BME280;65693;49.798;10.968;2023-02-14T00:49:06;100154.81;;;8.15;58.50
49973;BME280;65693;49.798;10.968;2023-02-14T00:51:34;100152.19;;;8.13;58.28
49973;BME280;65693;49.798;10.968;2023-02-14T00:54:01;100156.66;;;8.11;58.36
49973;BME280;65693;49.798;10.968;2023-02-14T00:56:28;100154.00;;;8.11;58.30
49973;BME280;65693;49.798;10.968;2023-02-14T00:58:54;100155.78;;;8.10;58.33
49973;BME280;65693;49.798;10.968;2023-02-14T01:01:20;100162.84;;;8.08;58.69
49973;BME280;65693;49.798;10.968;2023-02-14T01:03:47;100153.19;;;8.07;58.68
49973;BME280;65693;49.798;10.968;2023-02-14T01:06:14;100159.38;;;8.08;58.65
49973;BME280;65693;49.798;10.968;2023-02-14T01:08:42;100156.72;;;8.08;58.47
49973;BME280;65693;49.798;10.968;2023-02-14T01:11:10;100163.84;;;8.04;58.48
49973;BME280;65693;49.798;10.968;2023-02-14T01:13:37;100170.00;;;8.05;58.49
49973;BME280;65693;49.798;10.968;2023-02-14T01:16:05;100161.34;;;7.98;58.30
49973;BME280;65693;49.798;10.968;2023-02-14T01:18:33;100168.31;;;8.01;58.82
49973;BME280;65693;49.798;10.968;2023-02-14T01:21:09;100171.84;;;8.00;58.55
49973;BME280;65693;49.798;10.968;2023-02-14T01:23:35;100161.34;;;7.98;58.84
49973;BME280;65693;49.798;10.968;2023-02-14T01:26:04;100164.00;;;7.98;58.47
49973;BME280;65693;49.798;10.968;2023-02-14T01:28:31;100150.81;;;7.96;58.41
49973;BME280;65693;49.798;10.968;2023-02-14T01:31:05;100147.25;;;7.97;58.54
49973;BME280;65693;49.798;10.968;2023-02-14T01:33:31;100148.22;;;7.95;58.55
49973;BME280;65693;49.798;10.968;2023-02-14T01:35:57;100151.78;;;7.92;58.63
49973;BME280;65693;49.798;10.968;2023-02-14T01:38:24;100158.78;;;7.93;58.42
49973;BME280;65693;49.798;10.968;2023-02-14T01:40:51;100161.53;;;7.89;58.79
49973;BME280;65693;49.798;10.968;2023-02-14T01:43:18;100162.34;;;7.92;58.53
49973;BME280;65693;49.798;10.968;2023-02-14T01:45:45;100155.41;;;7.88;58.57
49973;BME280;65693;49.798;10.968;2023-02-14T01:48:12;100160.69;;;7.88;58.68
49973;BME280;65693;49.798;10.968;2023-02-14T01:50:41;100156.22;;;7.90;58.74
49973;BME280;65693;49.798;10.968;2023-02-14T01:53:11;100150.13;;;7.87;58.60
49973;BME280;65693;49.798;10.968;2023-02-14T01:55:41;100151.94;;;7.86;58.93
49973;BME280;65693;49.798;10.968;2023-02-14T01:58:10;100156.31;;;7.86;58.54
49973;BME280;65693;49.798;10.968;2023-02-14T02:00:41;100155.50;;;7.83;59.12
49973;BME280;65693;49.798;10.968;2023-02-14T02:03:26;100157.22;;;7.84;58.71
49973;BME280;65693;49.798;10.968;2023-02-14T02:05:59;100150.22;;;7.83;59.06
49973;BME280;65693;49.798;10.968;2023-02-14T02:08:28;100151.94;;;7.84;58.92
49973;BME280;65693;49.798;10.968;2023-02-14T02:10:54;100144.94;;;7.82;59.01
49973;BME280;65693;49.798;10.968;2023-02-14T02:13:22;100141.47;;;7.80;58.73
49973;BME280;65693;49.798;10.968;2023-02-14T02:15:58;100145.94;;;7.78;58.85
49973;BME280;65693;49.798;10.968;2023-02-14T02:18:37;100133.56;;;7.80;59.06
49973;BME280;65693;49.798;10.968;2023-02-14T02:24:21;100123.97;;;7.76;59.14
49973;BME280;65693;49.798;10.968;2023-02-14T02:27:17;100123.97;;;7.76;59.11
49973;BME280;65693;49.798;10.968;2023-02-14T02:33:18;100133.72;;;7.74;59.00
49973;BME280;65693;49.798;10.968;2023-02-14T02:36:04;100130.22;;;7.72;58.77
49973;BME280;65693;49.798;10.968;2023-02-14T02:41:27;100131.97;;;7.73;58.76
49973;BME280;65693;49.798;10.968;2023-02-14T02:44:02;100124.06;;;7.71;58.83
49973;BME280;65693;49.798;10.968;2023-02-14T02:46:36;100132.94;;;7.68;59.05
49973;BME280;65693;49.798;10.968;2023-02-14T02:49:20;100130.22;;;7.72;58.84
49973;BME280;65693;49.798;10.968;2023-02-14T02:52:08;100132.03;;;7.69;58.73
49973;BME280;65693;49.798;10.968;2023-02-14T02:54:59;100130.31;;;7.68;59.08
49973;BME280;65693;49.798;10.968;2023-02-14T02:57:31;100132.97;;;7.67;58.78
49973;BME280;65693;49.798;10.968;2023-02-14T03:00:00;100144.38;;;7.67;58.89
49973;BME280;65693;49.798;10.968;2023-02-14T03:02:30;100144.41;;;7.66;59.05
49973;BME280;65693;49.798;10.968;2023-02-14T03:05:01;100138.22;;;7.68;58.75
49973;BME280;65693;49.798;10.968;2023-02-14T03:07:33;100140.94;;;7.64;58.93
49973;BME280;65693;49.798;10.968;2023-02-14T03:10:07;100140.97;;;7.62;59.18
49973;BME280;65693;49.798;10.968;2023-02-14T03:12:49;100143.59;;;7.64;58.90
49973;BME280;65693;49.798;10.968;2023-02-14T03:15:32;100151.53;;;7.62;59.01
49973;BME280;65693;49.798;10.968;2023-02-14T03:18:07;100146.31;;;7.59;59.02
49973;BME280;65693;49.798;10.968;2023-02-14T03:20:59;100141.06;;;7.58;59.29
49973;BME280;65693;49.798;10.968;2023-02-14T03:23:32;100149.94;;;7.55;58.98
49973;BME280;65693;49.798;10.968;2023-02-14T03:26:12;100148.06;;;7.60;59.09
49973;BME280;65693;49.798;10.968;2023-02-14T03:28:42;100151.66;;;7.56;59.24
49973;BME280;65693;49.798;10.968;2023-02-14T03:31:18;100149.94;;;7.55;59.26
49973;BME280;65693;49.798;10.968;2023-02-14T03:33:49;100154.31;;;7.56;59.37
49973;BME280;65693;49.798;10.968;2023-02-14T03:36:22;100152.59;;;7.53;59.32
49973;BME280;65693;49.798;10.968;2023-02-14T03:38:55;100148.19;;;7.54;59.35
49973;BME280;65693;49.798;10.968;2023-02-14T03:41:28;100147.38;;;7.50;59.40
49973;BME280;65693;49.798;10.968;2023-02-14T03:43:58;100153.56;;;7.48;59.18
49973;BME280;65693;49.798;10.968;2023-02-14T03:46:28;100152.66;;;7.49;59.29
49973;BME280;65693;49.798;10.968;2023-02-14T03:48:57;100153.50;;;7.51;59.27
49973;BME280;65693;49.798;10.968;2023-02-14T03:51:26;100157.03;;;7.50;59.28
49973;BME280;65693;49.798;10.968;2023-02-14T03:54:00;100159.66;;;7.51;59.11
49973;BME280;65693;49.798;10.968;2023-02-14T03:56:31;100154.47;;;7.47;59.41
49973;BME280;65693;49.798;10.968;2023-02-14T03:59:02;100157.16;;;7.45;59.25
49973;BME280;65693;49.798;10.968;2023-02-14T04:01:34;100157.25;;;7.40;59.22
49973;BME280;65693;49.798;10.968;2023-02-14T04:04:03;100150.09;;;7.46;59.02
49973;BME280;65693;49.798;10.968;2023-02-14T04:06:31;100161.59;;;7.43;59.25
49973;BME280;65693;49.798;10.968;2023-02-14T04:08:57;100151.84;;;7.47;59.38
49973;BME280;65693;49.798;10.968;2023-02-14T04:11:25;100158.06;;;7.44;59.27
49973;BME280;65693;49.798;10.968;2023-02-14T04:13:52;100151.84;;;7.47;59.34
49973;BME280;65693;49.798;10.968;2023-02-14T04:16:18;100161.59;;;7.43;59.42
49973;BME280;65693;49.798;10.968;2023-02-14T04:18:45;100158.09;;;7.41;59.28
49973;BME280;65693;49.798;10.968;2023-02-14T04:21:29;100152.81;;;7.41;59.27
49973;BME280;65693;49.798;10.968;2023-02-14T04:23:55;100146.75;;;7.37;59.14
49973;BME280;65693;49.798;10.968;2023-02-14T04:26:22;100157.31;;;7.37;59.23
49973;BME280;65693;49.798;10.968;2023-02-14T04:28:49;100158.22;;;7.35;59.51
49973;BME280;65693;49.798;10.968;2023-02-14T04:31:16;100167.03;;;7.35;59.52
49973;BME280;65693;49.798;10.968;2023-02-14T04:33:42;100164.34;;;7.37;59.48
49973;BME280;65693;49.798;10.968;2023-02-14T04:36:15;100154.56;;;7.42;59.20
49973;BME280;65693;49.798;10.968;2023-02-14T04:38:41;100158.16;;;7.38;59.19
49973;BME280;65693;49.798;10.968;2023-02-14T04:41:08;100158.25;;;7.33;59.15
49973;BME280;65693;49.798;10.968;2023-02-14T04:43:34;100141.59;;;7.31;59.23
49973;BME280;65693;49.798;10.968;2023-02-14T04:46:02;100140.72;;;7.31;59.55
49973;BME280;65693;49.798;10.968;2023-02-14T04:48:28;100131.97;;;7.29;59.50
49973;BME280;65693;49.798;10.968;2023-02-14T04:50:55;100130.19;;;7.29;59.22
49973;BME280;65693;49.798;10.968;2023-02-14T04:53:21;100136.31;;;7.31;59.47
49973;BME280;65693;49.798;10.968;2023-02-14T04:55:48;100129.28;;;7.30;59.27
49973;BME280;65693;49.798;10.968;2023-02-14T04:58:15;100131.16;;;7.26;59.21
49973;BME280;65693;49.798;10.968;2023-02-14T05:00:42;100123.22;;;7.26;59.25
49973;BME280;65693;49.798;10.968;2023-02-14T05:03:10;100121.44;;;7.27;59.24
49973;BME280;65693;49.798;10.968;2023-02-14T05:05:36;100125.81;;;7.28;59.37
49973;BME280;65693;49.798;10.968;2023-02-14T05:08:02;100131.09;;;7.28;59.56
49973;BME280;65693;49.798;10.968;2023-02-14T05:10:29;100127.63;;;7.26;59.30
49973;BME280;65693;49.798;10.968;2023-02-14T05:12:55;100124.16;;;7.24;59.39
49973;BME280;65693;49.798;10.968;2023-02-14T05:15:22;100124.09;;;7.25;59.47
49973;BME280;65693;49.798;10.968;2023-02-14T05:17:48;100119.78;;;7.23;59.55
49973;BME280;65693;49.798;10.968;2023-02-14T05:20:16;100113.66;;;7.21;59.55
49973;BME280;65693;49.798;10.968;2023-02-14T05:22:43;100113.59;;;7.24;59.32
49973;BME280;65693;49.798;10.968;2023-02-14T05:25:09;100111.94;;;7.18;59.52
49973;BME280;65693;49.798;10.968;2023-02-14T05:27:35;100116.31;;;7.19;59.67
49973;BME280;65693;49.798;10.968;2023-02-14T05:30:02;100117.22;;;7.18;59.46
49973;BME280;65693;49.798;10.968;2023-02-14T05:32:29;100115.50;;;7.16;59.61
49973;BME280;65693;49.798;10.968;2023-02-14T05:34:55;100118.13;;;7.16;59.38
49973;BME280;65693;49.798;10.968;2023-02-14T05:37:23;100114.59;;;7.17;59.30
49973;BME280;65693;49.798;10.968;2023-02-14T05:39:49;100115.50;;;7.16;59.39
49973;BME280;65693;49.798;10.968;2023-02-14T05:42:15;100111.13;;;7.16;59.67
49973;BME280;65693;49.798;10.968;2023-02-14T05:44:42;100111.13;;;7.15;59.42
49973;BME280;65693;49.798;10.968;2023-02-14T05:47:08;100113.78;;;7.15;59.37
49973;BME280;65693;49.798;10.968;2023-02-14T05:49:35;100104.19;;;7.10;59.78
49973;BME280;65693;49.798;10.968;2023-02-14T05:52:01;100100.72;;;7.08;59.55
49973;BME280;65693;49.798;10.968;2023-02-14T05:54:29;100102.44;;;7.09;59.69
49973;BME280;65693;49.798;10.968;2023-02-14T05:56:55;100107.72;;;7.11;59.67
49973;BME280;65693;49.798;10.968;2023-02-14T05:59:21;100103.34;;;7.08;59.66
49973;BME280;65693;49.798;10.968;2023-02-14T06:01:48;100106.88;;;7.07;59.57
49973;BME280;65693;49.798;10.968;2023-02-14T06:04:14;100106.88;;;7.07;59.73
49973;BME280;65693;49.798;10.968;2023-02-14T06:06:41;100106.88;;;7.07;59.74
49973;BME280;65693;49.798;10.968;2023-02-14T06:09:07;100104.31;;;7.04;59.66
49973;BME280;65693;49.798;10.968;2023-02-14T06:11:35;100114.03;;;7.02;59.65
49973;BME280;65693;49.798;10.968;2023-02-14T06:14:01;100103.44;;;7.04;60.00
49973;BME280;65693;49.798;10.968;2023-02-14T06:16:27;100106.94;;;7.04;59.75
49973;BME280;65693;49.798;10.968;2023-02-14T06:18:54;100106.00;;;7.07;59.69
49973;BME280;65693;49.798;10.968;2023-02-14T06:21:20;100103.63;;;6.93;57.87
49973;BME280;65693;49.798;10.968;2023-02-14T06:23:47;100108.09;;;6.89;58.45
49973;BME280;65693;49.798;10.968;2023-02-14T06:26:13;100111.59;;;6.90;59.01
49973;BME280;65693;49.798;10.968;2023-02-14T06:28:41;100110.78;;;6.88;58.83
49973;BME280;65693;49.798;10.968;2023-02-14T06:31:07;100113.34;;;6.91;59.18
49973;BME280;65693;49.798;10.968;2023-02-14T06:33:39;100109.78;;;6.93;59.30
49973;BME280;65693;49.798;10.968;2023-02-14T06:36:06;100109.81;;;6.90;58.89
49973;BME280;65693;49.798;10.968;2023-02-14T06:38:32;100112.44;;;6.92;59.01
49973;BME280;65693;49.798;10.968;2023-02-14T06:41:02;100119.47;;;6.91;59.38
49973;BME280;65693;49.798;10.968;2023-02-14T06:43:28;100122.16;;;6.90;59.16
49973;BME280;65693;49.798;10.968;2023-02-14T06:45:56;100123.00;;;6.90;59.49
49973;BME280;65693;49.798;10.968;2023-02-14T06:48:22;100126.53;;;6.91;59.12
49973;BME280;65693;49.798;10.968;2023-02-14T06:50:49;100136.19;;;6.90;59.46
49973;BME280;65693;49.798;10.968;2023-02-14T06:53:16;100129.97;;;6.94;59.38
49973;BME280;65693;49.798;10.968;2023-02-14T06:55:43;100130.00;;;6.91;59.36
49973;BME280;65693;49.798;10.968;2023-02-14T06:58:09;100126.53;;;6.89;59.59
49973;BME280;65693;49.798;10.968;2023-02-14T07:00:36;100125.75;;;6.86;59.32
49973;BME280;65693;49.798;10.968;2023-02-14T07:03:05;100128.38;;;6.86;59.57
49973;BME280;65693;49.798;10.968;2023-02-14T07:05:31;100130.13;;;6.87;59.38
49973;BME280;65693;49.798;10.968;2023-02-14T07:07:58;100130.13;;;6.87;59.43
49973;BME280;65693;49.798;10.968;2023-02-14T07:10:25;100131.94;;;6.81;59.49
49973;BME280;65693;49.798;10.968;2023-02-14T07:12:51;100131.03;;;6.84;59.25
49973;BME280;65693;49.798;10.968;2023-02-14T07:15:18;100122.28;;;6.82;59.45
49973;BME280;65693;49.798;10.968;2023-02-14T07:17:44;100126.69;;;6.81;59.68
49973;BME280;65693;49.798;10.968;2023-02-14T07:20:13;100128.41;;;6.82;59.69
49973;BME280;65693;49.798;10.968;2023-02-14T07:22:39;100130.25;;;6.79;59.48
49973;BME280;65693;49.798;10.968;2023-02-14T07:25:06;100132.84;;;6.82;59.54
49973;BME280;65693;49.798;10.968;2023-02-14T07:27:33;100131.09;;;6.81;59.64
49973;BME280;65693;49.798;10.968;2023-02-14T07:29:59;100132.00;;;6.80;59.57
49973;BME280;65693;49.798;10.968;2023-02-14T07:32:26;100125.00;;;6.77;59.61
49973;BME280;65693;49.798;10.968;2023-02-14T07:34:52;100128.53;;;6.76;59.46
49973;BME280;65693;49.798;10.968;2023-02-14T07:37:20;100128.53;;;6.76;59.53
49973;BME280;65693;49.798;10.968;2023-02-14T07:39:46;100132.97;;;6.74;59.50
49973;BME280;65693;49.798;10.968;2023-02-14T07:42:13;100125.00;;;6.76;59.37
49973;BME280;65693;49.798;10.968;2023-02-14T07:44:39;100133.84;;;6.73;59.70
49973;BME280;65693;49.798;10.968;2023-02-14T07:47:07;100131.22;;;6.73;59.43
49973;BME280;65693;49.798;10.968;2023-02-14T07:49:34;100127.75;;;6.71;59.57
49973;BME280;65693;49.798;10.968;2023-02-14T07:52:01;100123.38;;;6.70;59.76
49973;BME280;65693;49.798;10.968;2023-02-14T07:54:29;100119.84;;;6.69;59.87
49973;BME280;65693;49.798;10.968;2023-02-14T07:56:55;100126.91;;;6.69;59.77
49973;BME280;65693;49.798;10.968;2023-02-14T07:59:21;100117.22;;;6.69;59.61
49973;BME280;65693;49.798;10.968;2023-02-14T08:01:48;100116.38;;;6.69;59.80
49973;BME280;65693;49.798;10.968;2023-02-14T08:04:14;100126.00;;;6.70;59.74
49973;BME280;65693;49.798;10.968;2023-02-14T08:06:41;100126.00;;;6.70;59.67
49973;BME280;65693;49.798;10.968;2023-02-14T08:09:08;100125.16;;;6.68;59.70
49973;BME280;65693;49.798;10.968;2023-02-14T08:11:36;100121.66;;;6.66;59.81
49973;BME280;65693;49.798;10.968;2023-02-14T08:14:20;100115.50;;;6.67;59.54
49973;BME280;65693;49.798;10.968;2023-02-14T08:16:47;100120.81;;;6.65;59.63
49973;BME280;65693;49.798;10.968;2023-02-14T08:19:13;100116.44;;;6.64;59.75
49973;BME280;65693;49.798;10.968;2023-02-14T08:21:40;100116.47;;;6.63;59.89
49973;BME280;65693;49.798;10.968;2023-02-14T08:24:06;100111.19;;;6.63;59.63
49973;BME280;65693;49.798;10.968;2023-02-14T08:26:33;100112.91;;;6.64;59.82
49973;BME280;65693;49.798;10.968;2023-02-14T08:29:01;100106.81;;;6.63;59.52
49973;BME280;65693;49.798;10.968;2023-02-14T08:31:29;100108.59;;;6.61;59.70
49973;BME280;65693;49.798;10.968;2023-02-14T08:33:56;100109.44;;;6.62;59.49
49973;BME280;65693;49.798;10.968;2023-02-14T08:36:23;100114.72;;;6.62;59.60
49973;BME280;65693;49.798;10.968;2023-02-14T08:38:49;100107.72;;;6.61;59.70
49973;BME280;65693;49.798;10.968;2023-02-14T08:41:16;100111.25;;;6.60;59.64
49973;BME280;65693;49.798;10.968;2023-02-14T08:43:44;100101.59;;;6.59;59.81
49973;BME280;65693;49.798;10.968;2023-02-14T08:46:12;100106.00;;;6.58;59.78
49973;BME280;65693;49.798;10.968;2023-02-14T08:48:39;100106.00;;;6.58;59.63
49973;BME280;65693;49.798;10.968;2023-02-14T08:51:05;100110.34;;;6.61;59.73
49973;BME280;65693;49.798;10.968;2023-02-14T08:53:32;100112.97;;;6.61;59.48
49973;BME280;65693;49.798;10.968;2023-02-14T08:56:01;100111.25;;;6.60;59.77
49973;BME280;65693;49.798;10.968;2023-02-14T08:58:28;100101.63;;;6.57;59.87
49973;BME280;65693;49.798;10.968;2023-02-14T09:00:54;100097.22;;;6.58;59.86
49973;BME280;65693;49.798;10.968;2023-02-14T09:03:22;100110.41;;;6.56;59.62
49973;BME280;65693;49.798;10.968;2023-02-14T09:05:49;100105.19;;;6.54;59.70
49973;BME280;65693;49.798;10.968;2023-02-14T09:08:15;100106.94;;;6.54;59.83
49973;BME280;65693;49.798;10.968;2023-02-14T09:10:41;100100.78;;;6.57;59.91
49973;BME280;65693;49.798;10.968;2023-02-14T09:13:08;100103.47;;;6.53;59.69
49973;BME280;65693;49.798;10.968;2023-02-14T09:15:34;100106.94;;;6.54;59.52
49973;BME280;65693;49.798;10.968;2023-02-14T09:18:01;100109.56;;;6.55;59.57
49973;BME280;65693;49.798;10.968;2023-02-14T09:20:28;100112.16;;;6.57;59.05
49973;BME280;65693;49.798;10.968;2023-02-14T09:22:55;100106.94;;;6.54;58.07
49973;BME280;65693;49.798;10.968;2023-02-14T09:25:21;100108.81;;;6.47;58.59
49973;BME280;65693;49.798;10.968;2023-02-14T09:27:48;100100.13;;;6.42;59.32
49973;BME280;65693;49.798;10.968;2023-02-14T09:30:15;100097.50;;;6.42;59.16
49973;BME280;65693;49.798;10.968;2023-02-14T09:32:41;100093.13;;;6.39;59.23
49973;BME280;65693;49.798;10.968;2023-02-14T09:35:08;100096.66;;;6.38;59.38
49973;BME280;65693;49.798;10.968;2023-02-14T09:37:53;100095.81;;;6.38;59.60
49973;BME280;65693;49.798;10.968;2023-02-14T09:40:37;100089.59;;;6.40;59.58
49973;BME280;65693;49.798;10.968;2023-02-14T09:43:08;100092.22;;;6.40;59.33
49973;BME280;65693;49.798;10.968;2023-02-14T09:45:38;100093.97;;;6.43;59.29
49973;BME280;65693;49.798;10.968;2023-02-14T09:48:08;100089.59;;;6.42;59.62
49973;BME280;65693;49.798;10.968;2023-02-14T09:50:42;100091.31;;;6.43;59.37
49973;BME280;65693;49.798;10.968;2023-02-14T09:53:17;100091.38;;;6.40;59.84
49973;BME280;65693;49.798;10.968;2023-02-14T09:55:51;100098.38;;;6.41;59.20
49973;BME280;65693;49.798;10.968;2023-02-14T09:58:21;100091.31;;;6.45;59.10
49973;BME280;65693;49.798;10.968;2023-02-14T10:00:54;100098.06;;;6.60;59.30
49973;BME280;65693;49.798;10.968;2023-02-14T10:03:36;100096.66;;;6.90;58.72
49973;BME280;65693;49.798;10.968;2023-02-14T10:06:18;100094.59;;;7.06;58.86
49973;BME280;65693;49.798;10.968;2023-02-14T10:08:57;100095.28;;;7.16;58.50
49973;BME280;65693;49.798;10.968;2023-02-14T10:11:27;100095.22;;;7.21;58.47
49973;BME280;65693;49.798;10.968;2023-02-14T10:13:57;100088.03;;;7.28;58.17
49973;BME280;65693;49.798;10.968;2023-02-14T10:16:27;100094.94;;;7.33;58.29
49973;BME280;65693;49.798;10.968;2023-02-14T10:18:59;100093.13;;;7.37;58.44
49973;BME280;65693;49.798;10.968;2023-02-14T10:21:30;100092.19;;;7.39;58.24
49973;BME280;65693;49.798;10.968;2023-02-14T10:24:03;100093.94;;;7.40;58.34
49973;BME280;65693;49.798;10.968;2023-02-14T10:26:37;100100.94;;;7.43;58.10
49973;BME280;65693;49.798;10.968;2023-02-14T10:29:09;100092.09;;;7.44;58.10
49973;BME280;65693;49.798;10.968;2023-02-14T10:31:41;100090.31;;;7.45;58.13
49973;BME280;65693;49.798;10.968;2023-02-14T10:34:16;100092.97;;;7.45;57.99
49973;BME280;65693;49.798;10.968;2023-02-14T10:36:58;100092.06;;;7.46;58.20
49973;BME280;65693;49.798;10.968;2023-02-14T10:39:48;100086.78;;;7.46;58.39
49973;BME280;65693;49.798;10.968;2023-02-14T10:42:24;100085.03;;;7.46;58.15
49973;BME280;65693;49.798;10.968;2023-02-14T10:44:56;100069.22;;;7.45;58.04
49973;BME280;65693;49.798;10.968;2023-02-14T10:47:32;100070.09;;;7.45;58.11
49973;BME280;65693;49.798;10.968;2023-02-14T10:50:12;100075.38;;;7.45;58.10
49973;BME280;65693;49.798;10.968;2023-02-14T10:52:45;100064.81;;;7.45;58.44
49973;BME280;65693;49.798;10.968;2023-02-14T10:55:19;100064.81;;;7.45;58.45
49973;BME280;65693;49.798;10.968;2023-02-14T10:57:50;100063.94;;;7.45;58.11
49973;BME280;65693;49.798;10.968;2023-02-14T11:00:21;100065.72;;;7.44;58.54
49973;BME280;65693;49.798;10.968;2023-02-14T11:02:50;100060.44;;;7.44;58.41
49973;BME280;65693;49.798;10.968;2023-02-14T11:05:24;100068.38;;;7.44;58.46
49973;BME280;65693;49.798;10.968;2023-02-14T11:07:50;100068.38;;;7.44;58.36
49973;BME280;65693;49.798;10.968;2023-02-14T11:10:23;100063.09;;;7.44;58.25
49973;BME280;65693;49.798;10.968;2023-02-14T11:12:50;100062.22;;;7.44;58.21
49973;BME280;65693;49.798;10.968;2023-02-14T11:15:21;100056.94;;;7.44;58.12
49973;BME280;65693;49.798;10.968;2023-02-14T11:17:49;100059.56;;;7.44;58.30
49973;BME280;65693;49.798;10.968;2023-02-14T11:20:26;100056.06;;;7.43;58.47
49973;BME280;65693;49.798;10.968;2023-02-14T11:22:55;100045.53;;;7.43;58.60
49973;BME280;65693;49.798;10.968;2023-02-14T11:25:25;100042.84;;;7.45;58.34
49973;BME280;65693;49.798;10.968;2023-02-14T11:27:57;100041.97;;;7.44;58.33
49973;BME280;65693;49.798;10.968;2023-02-14T11:30:27;100039.38;;;7.43;58.50
49973;BME280;65693;49.798;10.968;2023-02-14T11:32:55;100042.84;;;7.45;58.33
49973;BME280;65693;49.798;10.968;2023-02-14T11:35:24;100047.34;;;7.39;58.29
49973;BME280;65693;49.798;10.968;2023-02-14T11:37:58;100040.25;;;7.43;58.16
49973;BME280;65693;49.798;10.968;2023-02-14T11:40:28;100041.97;;;7.44;58.09
49973;BME280;65693;49.798;10.968;2023-02-14T11:42:57;100041.97;;;7.44;58.74
49973;BME280;65693;49.798;10.968;2023-02-14T11:45:29;100040.03;;;7.52;58.69
49973;BME280;65693;49.798;10.968;2023-02-14T11:48:17;100038.28;;;7.51;58.51
49973;BME280;65693;49.798;10.968;2023-02-14T11:50:54;100032.22;;;7.48;58.68
49973;BME280;65693;49.798;10.968;2023-02-14T11:53:25;100037.47;;;7.48;58.45
49973;BME280;65693;49.798;10.968;2023-02-14T11:55:57;100032.28;;;7.45;58.67
49973;BME280;65693;49.798;10.968;2023-02-14T11:58:32;100031.44;;;7.44;58.54
49973;BME280;65693;49.798;10.968;2023-02-14T12:01:02;100032.34;;;7.41;58.60
49973;BME280;65693;49.798;10.968;2023-02-14T12:03:34;100023.53;;;7.43;58.64
49973;BME280;65693;49.798;10.968;2023-02-14T12:06:03;100017.44;;;7.39;58.72
49973;BME280;65693;49.798;10.968;2023-02-14T12:08:30;100012.16;;;7.40;58.90
49973;BME280;65693;49.798;10.968;2023-02-14T12:11:02;100004.31;;;7.37;58.88
49973;BME280;65693;49.798;10.968;2023-02-14T12:13:29;100004.31;;;7.37;58.96
49973;BME280;65693;49.798;10.968;2023-02-14T12:15:58;100001.69;;;7.37;58.88
49973;BME280;65693;49.798;10.968;2023-02-14T12:18:47;100001.69;;;7.37;58.74
49973;BME280;65693;49.798;10.968;2023-02-14T12:21:25;99999.06;;;7.36;58.87
49973;BME280;65693;49.798;10.968;2023-02-14T12:24:01;99991.16;;;7.34;59.09
49973;BME280;65693;49.798;10.968;2023-02-14T12:26:34;99987.69;;;7.34;58.89
49973;BME280;65693;49.798;10.968;2023-02-14T12:29:08;99985.91;;;7.34;58.86
49973;BME280;65693;49.798;10.968;2023-02-14T12:31:37;99987.69;;;7.34;58.81
49973;BME280;65693;49.798;10.968;2023-02-14T12:34:04;99977.13;;;7.34;58.84
49973;BME280;65693;49.798;10.968;2023-02-14T12:36:51;99977.09;;;7.35;59.15
49973;BME280;65693;49.798;10.968;2023-02-14T12:39:32;99968.34;;;7.33;59.00
49973;BME280;65693;49.798;10.968;2023-02-14T12:42:10;99965.69;;;7.35;58.93
49973;BME280;65693;49.798;10.968;2023-02-14T12:44:46;99962.22;;;7.33;59.02
49973;BME280;65693;49.798;10.968;2023-02-14T12:47:19;99963.09;;;7.32;59.14
49973;BME280;65693;49.798;10.968;2023-02-14T12:50:19;99963.09;;;7.32;59.12
49973;BME280;65693;49.798;10.968;2023-02-14T12:53:23;99958.75;;;7.31;59.08
49973;BME280;65693;49.798;10.968;2023-02-14T12:56:00;99958.69;;;7.32;58.88
49973;BME280;65693;49.798;10.968;2023-02-14T12:58:39;99957.91;;;7.29;59.25
49973;BME280;65693;49.798;10.968;2023-02-14T13:01:28;99945.56;;;7.29;58.90
49973;BME280;65693;49.798;10.968;2023-02-14T13:04:12;99953.53;;;7.28;58.92
49973;BME280;65693;49.798;10.968;2023-02-14T13:06:48;99947.38;;;7.27;59.17
49973;BME280;65693;49.798;10.968;2023-02-14T13:09:25;99937.75;;;7.26;59.22
49973;BME280;65693;49.798;10.968;2023-02-14T13:12:05;99936.00;;;7.25;59.46
49973;BME280;65693;49.798;10.968;2023-02-14T13:14:47;99927.25;;;7.23;59.12
49973;BME280;65693;49.798;10.968;2023-02-14T13:17:23;99933.38;;;7.25;59.14